Time;durP1;ratioP1;P1;durP2;ratioP2;P2;SDS_P1;SDS_P2;PMS_P1;PMS_P2;Temp;Humidity;BMP_temperature;BMP_pressure;BME280_temperature;BME280_humidity;BME280_pressure;Samples;Min_cycle;Max_cycle;Signal;HPM_P1;HPM_P2
2023/12/21 00:01:36;;;;;;;1.20;0.40;;;;;;;2.93;100.00;99460.77;105163;1260;69125;-62
2023/12/21 00:04:04;;;;;;;2.60;0.40;;;;;;;2.89;100.00;99456.53;105179;1257;69186;-61
2023/12/21 00:06:33;;;;;;;1.00;0.40;;;;;;;2.85;100.00;99454.36;105253;1260;72633;-62
2023/12/21 00:09:01;;;;;;;1.50;0.60;;;;;;;2.83;100.00;99447.69;105157;1260;81406;-62
2023/12/21 00:11:30;;;;;;;0.40;0.40;;;;;;;2.81;100.00;99439.27;105185;1257;72200;-61
2023/12/21 00:13:59;;;;;;;1.00;0.30;;;;;;;2.80;100.00;99434.48;105204;1258;69143;-62
2023/12/21 00:16:27;;;;;;;1.10;0.50;;;;;;;2.78;100.00;99431.23;105178;1256;69183;-61
2023/12/21 00:18:57;;;;;;;0.90;0.50;;;;;;;2.77;100.00;99427.29;105178;1256;74311;-61
2023/12/21 00:21:26;;;;;;;0.90;0.40;;;;;;;2.76;100.00;99423.52;105173;1256;82788;-61
2023/12/21 00:23:54;;;;;;;4.00;0.80;;;;;;;2.76;100.00;99415.59;105176;1260;72888;-61
2023/12/21 00:26:22;;;;;;;1.20;0.70;;;;;;;2.76;100.00;99409.19;105167;1257;69118;-61
2023/12/21 00:28:50;;;;;;;2.80;0.90;;;;;;;2.76;100.00;99402.47;105137;1259;69212;-61
2023/12/21 00:31:18;;;;;;;1.20;0.80;;;;;;;2.77;100.00;99402.96;105207;1256;74343;-61
2023/12/21 00:33:47;;;;;;;1.70;0.80;;;;;;;2.76;100.00;99392.96;105118;1260;82294;-61
2023/12/21 00:36:16;;;;;;;2.30;0.80;;;;;;;2.76;100.00;99386.60;105149;1258;71754;-61
2023/12/21 00:38:44;;;;;;;3.00;0.70;;;;;;;2.76;100.00;99382.98;105203;1257;69214;-61
2023/12/21 00:41:13;;;;;;;3.70;1.60;;;;;;;2.75;100.00;99377.98;105115;1257;69190;-61
2023/12/21 00:43:41;;;;;;;4.90;2.30;;;;;;;2.75;100.00;99368.69;105153;1256;73626;-61
2023/12/21 00:46:09;;;;;;;6.90;2.70;;;;;;;2.74;100.00;99368.17;105139;1261;81828;-61
2023/12/21 00:48:37;;;;;;;2.80;1.20;;;;;;;2.74;100.00;99362.14;105156;1257;71656;-61
2023/12/21 00:51:06;;;;;;;1.60;0.90;;;;;;;2.75;100.00;99357.99;105101;1259;69115;-61
2023/12/21 00:53:34;;;;;;;1.60;1.10;;;;;;;2.74;100.00;99357.12;105197;1258;69160;-61
2023/12/21 00:56:03;;;;;;;2.10;1.30;;;;;;;2.75;100.00;99351.77;105163;1257;73647;-61
2023/12/21 00:58:31;;;;;;;3.00;1.60;;;;;;;2.76;100.00;99350.55;105117;1256;82745;-61
2023/12/21 01:00:59;;;;;;;4.50;2.90;;;;;;;2.75;100.00;99347.27;105140;1256;71279;-62
2023/12/21 01:03:28;;;;;;;5.80;2.40;;;;;;;2.76;100.00;99340.36;105358;1257;69183;-61
2023/12/21 01:05:56;;;;;;;7.60;3.90;;;;;;;2.77;100.00;99337.23;105207;1257;69193;-63
2023/12/21 01:08:25;;;;;;;4.40;2.10;;;;;;;2.77;100.00;99333.44;105323;1257;74185;-62
2023/12/21 01:10:53;;;;;;;3.90;2.40;;;;;;;2.77;100.00;99329.13;105132;1260;81627;-62
2023/12/21 01:13:21;;;;;;;4.30;2.80;;;;;;;2.76;100.00;99322.06;105130;1257;72381;-62
2023/12/21 01:15:49;;;;;;;5.70;2.90;;;;;;;2.76;100.00;99315.16;105136;1256;69201;-62
2023/12/21 01:18:18;;;;;;;6.20;3.00;;;;;;;2.76;100.00;99311.20;105140;1256;69204;-63
2023/12/21 01:20:46;;;;;;;7.70;3.60;;;;;;;2.76;100.00;99302.91;105254;1259;74034;-62
2023/12/21 01:23:15;;;;;;;6.20;3.30;;;;;;;2.77;100.00;99299.11;105135;1257;82042;-62
2023/12/21 01:25:43;;;;;;;4.60;2.60;;;;;;;2.78;100.00;99288.74;105184;1260;71002;-61
2023/12/21 01:28:11;;;;;;;5.10;2.40;;;;;;;2.78;100.00;99286.67;105115;1260;69787;-60
2023/12/21 01:30:40;;;;;;;5.30;2.50;;;;;;;2.77;100.00;99281.17;105182;1260;69182;-60
2023/12/21 01:33:08;;;;;;;3.70;2.30;;;;;;;2.76;100.00;99274.45;105123;1256;75111;-60
2023/12/21 01:35:36;;;;;;;3.70;2.40;;;;;;;2.77;100.00;99266.34;105119;1260;82689;-60
2023/12/21 01:38:05;;;;;;;5.80;2.40;;;;;;;2.77;100.00;99263.06;105150;1258;72522;-60
2023/12/21 01:40:33;;;;;;;4.80;2.60;;;;;;;2.77;100.00;99253.73;105117;1260;69130;-60
2023/12/21 01:43:01;;;;;;;3.90;2.10;;;;;;;2.77;100.00;99236.48;105106;1256;69244;-60
2023/12/21 01:45:29;;;;;;;4.30;2.20;;;;;;;2.78;100.00;99225.59;105115;1258;74915;-60
2023/12/21 01:47:58;;;;;;;6.30;2.70;;;;;;;2.79;100.00;99216.23;105158;1260;83445;-60
2023/12/21 01:50:27;;;;;;;4.10;2.80;;;;;;;2.80;100.00;99204.33;105132;1261;71922;-60
2023/12/21 01:52:56;;;;;;;4.60;3.10;;;;;;;2.80;100.00;99202.94;105189;1261;69121;-60
2023/12/21 01:55:24;;;;;;;5.80;4.10;;;;;;;2.81;100.00;99187.22;105177;1260;69135;-60
2023/12/21 01:57:53;;;;;;;6.30;3.90;;;;;;;2.83;100.00;99177.52;105228;1257;73828;-60
2023/12/21 02:00:22;;;;;;;4.50;3.10;;;;;;;2.84;100.00;99166.27;105234;1259;81432;-60
2023/12/21 02:02:50;;;;;;;6.30;3.40;;;;;;;2.85;100.00;99159.16;105166;1257;72285;-62
2023/12/21 02:05:19;;;;;;;5.60;3.40;;;;;;;2.86;100.00;99156.91;105195;1256;69136;-62
2023/12/21 02:07:48;;;;;;;5.40;3.30;;;;;;;2.88;100.00;99149.77;105173;1260;69199;-62
2023/12/21 02:10:17;;;;;;;7.10;3.40;;;;;;;2.90;100.00;99141.61;105139;1256;73282;-62
2023/12/21 02:12:45;;;;;;;5.40;3.10;;;;;;;2.93;100.00;99130.34;105164;1260;81606;-62
2023/12/21 02:15:14;;;;;;;6.70;4.00;;;;;;;2.96;100.00;99128.35;105138;1257;71830;-62
2023/12/21 02:17:42;;;;;;;6.30;3.90;;;;;;;2.99;100.00;99118.41;105108;1260;69743;-62
2023/12/21 02:20:11;;;;;;;6.30;3.40;;;;;;;3.02;100.00;99116.61;105223;1260;69147;-62
2023/12/21 02:22:41;;;;;;;6.00;3.20;;;;;;;3.06;100.00;99108.06;105067;1257;74293;-63
2023/12/21 02:25:09;;;;;;;4.60;2.90;;;;;;;3.11;100.00;99098.96;105178;1260;81820;-63
2023/12/21 02:27:38;;;;;;;4.00;2.80;;;;;;;3.19;100.00;99090.63;105246;1258;71664;-63
2023/12/21 02:30:07;;;;;;;4.00;2.80;;;;;;;3.25;100.00;99079.05;105084;1256;69166;-63
2023/12/21 02:32:35;;;;;;;5.60;2.60;;;;;;;3.31;100.00;99072.66;105211;1257;69259;-63
2023/12/21 02:35:04;;;;;;;4.80;2.70;;;;;;;3.37;100.00;99066.65;105290;1257;73764;-61
2023/12/21 02:37:35;;;;;;;3.70;2.30;;;;;;;3.40;100.00;99065.16;105273;1257;82224;-63
2023/12/21 02:40:04;;;;;;;2.80;2.10;;;;;;;3.44;100.00;99055.71;105260;1257;70994;-62
2023/12/21 02:42:32;;;;;;;1.60;1.40;;;;;;;3.49;100.00;99053.84;105165;1261;69141;-61
2023/12/21 02:45:00;;;;;;;2.60;1.60;;;;;;;3.52;100.00;99038.36;105111;1258;69206;-62
2023/12/21 02:47:29;;;;;;;2.50;1.60;;;;;;;3.56;100.00;99030.66;105147;1256;73667;-61
2023/12/21 02:49:57;;;;;;;2.90;1.40;;;;;;;3.58;100.00;99019.03;105124;1260;81834;-62
2023/12/21 02:52:25;;;;;;;2.30;1.30;;;;;;;3.59;100.00;99012.95;105173;1260;71011;-62
2023/12/21 02:54:54;;;;;;;1.80;1.10;;;;;;;3.60;100.00;99005.66;105109;1260;69145;-62
2023/12/21 02:57:22;;;;;;;2.60;1.30;;;;;;;3.60;100.00;99002.54;105164;1257;69126;-61
2023/12/21 02:59:50;;;;;;;1.50;1.20;;;;;;;3.61;100.00;98986.64;105215;1257;74460;-61
2023/12/21 03:02:18;;;;;;;1.90;1.00;;;;;;;3.62;100.00;98992.65;105157;1257;80640;-61
2023/12/21 03:04:46;;;;;;;2.20;0.90;;;;;;;3.63;100.00;98990.89;105126;1256;71766;-61
2023/12/21 03:07:15;;;;;;;0.80;0.60;;;;;;;3.65;100.00;98982.88;105104;1260;69132;-61
2023/12/21 03:09:43;;;;;;;3.00;0.80;;;;;;;3.67;100.00;98975.41;105150;1256;69175;-61
2023/12/21 03:12:11;;;;;;;1.50;0.70;;;;;;;3.68;100.00;98962.23;105116;1258;72684;-61
2023/12/21 03:14:39;;;;;;;1.00;0.60;;;;;;;3.68;100.00;98958.93;105123;1261;82842;-60
2023/12/21 03:17:08;;;;;;;1.40;0.70;;;;;;;3.70;100.00;98955.79;105111;1257;70586;-61
2023/12/21 03:19:36;;;;;;;0.80;0.60;;;;;;;3.70;100.00;98944.02;105163;1257;69212;-61
2023/12/21 03:22:04;;;;;;;2.10;0.60;;;;;;;3.70;100.00;98950.77;105165;1256;69238;-60
2023/12/21 03:24:32;;;;;;;0.70;0.50;;;;;;;3.71;100.00;98942.60;105160;1257;74317;-61
2023/12/21 03:27:00;;;;;;;1.60;0.50;;;;;;;3.72;100.00;98936.36;105100;1260;81680;-60
2023/12/21 03:29:28;;;;;;;0.60;0.50;;;;;;;3.72;100.00;98935.14;105128;1261;71120;-61
2023/12/21 03:31:57;;;;;;;0.70;0.50;;;;;;;3.73;100.00;98919.56;105106;1256;69139;-61
2023/12/21 03:34:26;;;;;;;1.00;0.50;;;;;;;3.73;100.00;98915.57;105197;1261;69208;-61
2023/12/21 03:36:54;;;;;;;0.40;0.40;;;;;;;3.74;100.00;98913.30;105198;1261;74199;-61
2023/12/21 03:39:22;;;;;;;1.20;0.50;;;;;;;3.75;100.00;98904.65;105113;1261;82733;-61
2023/12/21 03:41:50;;;;;;;0.80;0.50;;;;;;;3.75;100.00;98897.76;105102;1257;72323;-62
2023/12/21 03:44:20;;;;;;;1.30;0.40;;;;;;;3.75;100.00;98897.06;105109;1260;69176;-62
2023/12/21 03:46:48;;;;;;;0.90;0.60;;;;;;;3.73;100.00;98894.52;105209;1256;69159;-64
2023/12/21 03:49:16;;;;;;;0.70;0.40;;;;;;;3.70;100.00;98884.59;105134;1256;72415;-63
2023/12/21 03:51:45;;;;;;;1.30;0.50;;;;;;;3.67;100.00;98887.98;105210;1262;82369;-62
2023/12/21 03:54:13;;;;;;;0.50;0.40;;;;;;;3.64;100.00;98872.02;105163;1257;71736;-62
2023/12/21 03:56:41;;;;;;;1.00;0.30;;;;;;;3.62;100.00;98870.01;105169;1261;69192;-62
2023/12/21 03:59:11;;;;;;;1.20;0.40;;;;;;;3.61;100.00;98862.81;105109;1257;69177;-63
2023/12/21 04:01:39;;;;;;;1.20;0.50;;;;;;;3.60;100.00;98856.77;105215;1260;74211;-62
2023/12/21 04:04:07;;;;;;;0.90;0.40;;;;;;;3.58;100.00;98859.08;105157;1260;81769;-61
2023/12/21 04:06:35;;;;;;;0.30;0.30;;;;;;;3.60;100.00;98855.23;105193;1256;72113;-61
2023/12/21 04:09:03;;;;;;;0.30;0.30;;;;;;;3.62;100.00;98855.01;105196;1259;69151;-61
2023/12/21 04:11:31;;;;;;;0.70;0.40;;;;;;;3.63;100.00;98850.64;105187;1260;69183;-62
2023/12/21 04:14:00;;;;;;;0.70;0.30;;;;;;;3.65;100.00;98850.05;105170;1256;74885;-61
2023/12/21 04:16:28;;;;;;;1.60;0.50;;;;;;;3.67;100.00;98840.98;105177;1261;82807;-61
2023/12/21 04:18:57;;;;;;;1.30;0.30;;;;;;;3.69;100.00;98836.09;105102;1262;72085;-61
2023/12/21 04:21:25;;;;;;;0.50;0.40;;;;;;;3.72;100.00;98820.45;105184;1257;69124;-61
2023/12/21 04:23:54;;;;;;;0.30;0.30;;;;;;;3.74;100.00;98829.53;105182;1260;69213;-62
2023/12/21 04:26:22;;;;;;;0.40;0.40;;;;;;;3.76;100.00;98816.00;105156;1256;74210;-62
2023/12/21 04:28:50;;;;;;;1.80;0.60;;;;;;;3.79;100.00;98819.52;105195;1262;81503;-61
2023/12/21 04:31:22;;;;;;;0.30;0.30;;;;;;;3.81;100.00;98820.33;105202;1257;71718;-62
2023/12/21 04:33:51;;;;;;;2.30;0.40;;;;;;;3.83;100.00;98807.10;105174;1262;69123;-62
2023/12/21 04:36:20;;;;;;;0.70;0.30;;;;;;;3.86;100.00;98809.79;105210;1256;69088;-62
2023/12/21 04:38:52;;;;;;;0.80;0.40;;;;;;;3.87;100.00;98810.59;105133;1262;74102;-62
2023/12/21 04:41:21;;;;;;;0.60;0.50;;;;;;;3.89;100.00;98792.40;105217;1257;80240;-62
2023/12/21 04:43:49;;;;;;;0.30;0.30;;;;;;;3.90;100.00;98793.21;105172;1262;72125;-61
2023/12/21 04:46:17;;;;;;;0.70;0.50;;;;;;;3.91;100.00;98786.27;105217;1256;69119;-61
2023/12/21 04:48:46;;;;;;;0.50;0.40;;;;;;;3.94;100.00;98783.73;105174;1256;69308;-61
2023/12/21 04:51:15;;;;;;;0.50;0.40;;;;;;;3.99;100.00;98780.77;105087;1256;75794;-61
2023/12/21 04:53:44;;;;;;;2.40;0.60;;;;;;;4.02;100.00;98784.29;105163;1256;81661;-61
2023/12/21 04:56:12;;;;;;;0.90;0.50;;;;;;;4.05;100.00;98779.20;105186;1256;70211;-62
2023/12/21 04:58:40;;;;;;;1.00;0.60;;;;;;;4.07;100.00;98779.63;105064;1256;69166;-61
2023/12/21 05:01:09;;;;;;;1.00;0.50;;;;;;;4.09;100.00;98782.66;105211;1261;69128;-61
2023/12/21 05:03:37;;;;;;;1.00;0.60;;;;;;;4.12;100.00;98786.88;105180;1257;74278;-61
2023/12/21 05:06:06;;;;;;;0.40;0.40;;;;;;;4.15;100.00;98790.93;105132;1262;82160;-61
2023/12/21 05:08:34;;;;;;;0.80;0.50;;;;;;;4.19;100.00;98786.65;105201;1262;72703;-61
2023/12/21 05:11:03;;;;;;;0.90;0.60;;;;;;;4.24;100.00;98783.52;105210;1261;69205;-61
2023/12/21 05:13:31;;;;;;;1.10;0.50;;;;;;;4.25;100.00;98785.35;105132;1260;69196;-61
2023/12/21 05:15:59;;;;;;;0.50;0.50;;;;;;;4.28;100.00;98780.26;105125;1260;74991;-61
2023/12/21 05:18:28;;;;;;;0.60;0.60;;;;;;;4.31;100.00;98796.38;105225;1262;81373;-61
2023/12/21 05:20:56;;;;;;;0.60;0.60;;;;;;;4.36;100.00;98782.89;105127;1257;70649;-61
2023/12/21 05:23:24;;;;;;;0.70;0.60;;;;;;;4.39;100.00;98772.23;105091;1256;69276;-63
2023/12/21 05:25:52;;;;;;;2.50;0.40;;;;;;;4.41;100.00;98776.83;105084;1260;69174;-63
2023/12/21 05:28:21;;;;;;;1.00;0.50;;;;;;;4.43;100.00;98779.34;105154;1257;72774;-63
2023/12/21 05:30:51;;;;;;;1.90;0.60;;;;;;;4.45;100.00;98774.76;105119;1262;82874;-62
2023/12/21 05:33:19;;;;;;;0.60;0.60;;;;;;;4.45;100.00;98769.37;105197;1256;71601;-62
2023/12/21 05:35:47;;;;;;;0.50;0.50;;;;;;;4.46;100.00;98765.36;105353;1256;69173;-62
2023/12/21 05:38:15;;;;;;;0.40;0.40;;;;;;;4.47;100.00;98768.28;105139;1257;69250;-63
2023/12/21 05:40:43;;;;;;;0.60;0.50;;;;;;;4.48;100.00;98767.22;105328;1256;72707;-63
2023/12/21 05:43:12;;;;;;;0.60;0.60;;;;;;;4.47;100.00;98759.11;105239;1262;81088;-63
2023/12/21 05:45:40;;;;;;;1.30;0.60;;;;;;;4.46;100.00;98748.93;105139;1259;72050;-62
2023/12/21 05:48:09;;;;;;;0.80;0.50;;;;;;;4.46;100.00;98751.17;105137;1262;69143;-62
2023/12/21 05:50:37;;;;;;;0.80;0.60;;;;;;;4.48;100.00;98743.68;105150;1260;69197;-62
2023/12/21 05:53:06;;;;;;;0.90;0.60;;;;;;;4.47;100.00;98750.29;105137;1256;73948;-62
2023/12/21 05:55:35;;;;;;;0.90;0.50;;;;;;;4.50;100.00;98750.89;105182;1256;80267;-62
2023/12/21 05:58:03;;;;;;;1.40;0.70;;;;;;;4.52;100.00;98748.73;105144;1257;71887;-62
2023/12/21 06:00:32;;;;;;;0.60;0.50;;;;;;;4.52;100.00;98753.56;105147;1258;69174;-62
2023/12/21 06:03:00;;;;;;;0.50;0.40;;;;;;;4.53;100.00;98746.78;105168;1257;69192;-62
2023/12/21 06:05:28;;;;;;;0.50;0.50;;;;;;;4.56;100.00;98751.00;105161;1256;73935;-62
2023/12/21 06:07:56;;;;;;;0.60;0.40;;;;;;;4.60;100.00;98738.88;105152;1260;81402;-62
2023/12/21 06:10:25;;;;;;;0.70;0.50;;;;;;;4.63;100.00;98746.21;105111;1260;72720;-62
2023/12/21 06:12:53;;;;;;;0.30;0.30;;;;;;;4.66;100.00;98740.20;105136;1259;69193;-62
2023/12/21 06:15:21;;;;;;;0.40;0.30;;;;;;;4.68;100.00;98748.26;105235;1260;69170;-62
2023/12/21 06:17:50;;;;;;;1.10;0.50;;;;;;;4.72;100.00;98739.80;105192;1256;73660;-62
2023/12/21 06:20:18;;;;;;;0.30;0.30;;;;;;;4.76;100.00;98736.36;105123;1256;81757;-62
2023/12/21 06:22:46;;;;;;;0.30;0.30;;;;;;;4.79;100.00;98747.17;105131;1260;71750;-62
2023/12/21 06:25:15;;;;;;;0.70;0.30;;;;;;;4.81;100.00;98733.39;105198;1262;69134;-62
2023/12/21 06:27:44;;;;;;;0.50;0.30;;;;;;;4.81;100.00;98732.35;105115;1257;69644;-62
2023/12/21 06:30:12;;;;;;;0.20;0.20;;;;;;;4.82;100.00;98724.86;105203;1257;74087;-62
2023/12/21 06:32:40;;;;;;;0.20;0.20;;;;;;;4.84;100.00;98729.27;105232;1256;81565;-62
2023/12/21 06:35:09;;;;;;;0.60;0.30;;;;;;;4.87;100.00;98730.72;105127;1257;73102;-62
2023/12/21 06:37:37;;;;;;;0.40;0.30;;;;;;;4.89;100.00;98726.14;105171;1261;69119;-62
2023/12/21 06:40:07;;;;;;;0.90;0.30;;;;;;;4.92;100.00;98726.89;105135;1257;69467;-62
2023/12/21 06:42:35;;;;;;;0.90;0.40;;;;;;;4.94;100.00;98717.80;105197;1261;72448;-62
2023/12/21 06:45:03;;;;;;;0.70;0.40;;;;;;;4.95;100.00;98716.89;105138;1260;81065;-62
2023/12/21 06:47:32;;;;;;;0.40;0.40;;;;;;;4.97;100.00;98713.36;105199;1257;71083;-62
2023/12/21 06:50:00;;;;;;;1.50;0.30;;;;;;;4.99;100.00;98712.94;105213;1257;69136;-63
2023/12/21 06:52:29;;;;;;;0.70;0.40;;;;;;;5.00;100.00;98714.26;105248;1257;69193;-62
2023/12/21 06:54:57;;;;;;;1.60;0.40;;;;;;;5.02;100.00;98712.63;105172;1257;74409;-62
2023/12/21 06:57:25;;;;;;;0.30;0.30;;;;;;;5.05;100.00;98701.78;105189;1257;80839;-63
2023/12/21 06:59:54;;;;;;;0.20;0.20;;;;;;;5.06;100.00;98705.02;105132;1260;72231;-62
2023/12/21 07:02:22;;;;;;;1.30;0.30;;;;;;;5.06;100.00;98700.50;105140;1257;69092;-62
2023/12/21 07:04:50;;;;;;;0.70;0.20;;;;;;;5.07;100.00;98698.39;105110;1256;69113;-62
2023/12/21 07:07:19;;;;;;;0.40;0.30;;;;;;;5.07;100.00;98696.83;105355;1256;74118;-62
2023/12/21 07:09:47;;;;;;;0.30;0.30;;;;;;;5.06;100.00;98695.67;105221;1260;81429;-62
2023/12/21 07:12:17;;;;;;;0.70;0.30;;;;;;;5.06;100.00;98690.14;105303;1257;71821;-63
2023/12/21 07:14:45;;;;;;;0.70;0.50;;;;;;;5.06;100.00;98677.67;105209;1257;69147;-62
2023/12/21 07:17:13;;;;;;;0.90;0.50;;;;;;;5.06;100.00;98686.66;105172;1260;69193;-62
2023/12/21 07:19:42;;;;;;;1.40;0.40;;;;;;;5.06;100.00;98680.27;105173;1257;73442;-62
2023/12/21 07:22:10;;;;;;;0.70;0.40;;;;;;;5.05;100.00;98679.77;105194;1260;81625;-62
2023/12/21 07:24:38;;;;;;;0.70;0.50;;;;;;;5.05;100.00;98676.83;105157;1256;71555;-63
2023/12/21 07:27:06;;;;;;;1.20;0.60;;;;;;;5.05;100.00;98666.98;105124;1260;69141;-62
2023/12/21 07:29:35;;;;;;;0.80;0.30;;;;;;;5.05;100.00;98662.65;105260;1257;69475;-62
2023/12/21 07:32:03;;;;;;;0.60;0.40;;;;;;;5.06;100.00;98662.28;105224;1257;74771;-62
2023/12/21 07:34:31;;;;;;;1.20;0.50;;;;;;;5.07;100.00;98657.55;105129;1261;82840;-62
2023/12/21 07:37:00;;;;;;;0.70;0.50;;;;;;;5.07;100.00;98651.11;105158;1257;71673;-62
2023/12/21 07:39:29;;;;;;;1.60;0.60;;;;;;;5.10;100.00;98647.22;105167;1262;69081;-61
2023/12/21 07:41:57;;;;;;;3.60;1.70;;;;;;;5.12;100.00;98644.16;105184;1260;69145;-62
2023/12/21 07:44:25;;;;;;;5.00;1.90;;;;;;;5.15;100.00;98632.63;105151;1258;74259;-61
2023/12/21 07:46:54;;;;;;;3.20;1.40;;;;;;;5.17;100.00;98628.41;105191;1256;80498;-62
2023/12/21 07:49:22;;;;;;;6.70;3.60;;;;;;;5.18;100.00;98628.34;105170;1257;71819;-62
2023/12/21 07:51:51;;;;;;;7.90;3.10;;;;;;;5.20;100.00;98626.69;105200;1260;69141;-62
2023/12/21 07:54:19;;;;;;;1.70;0.80;;;;;;;5.22;100.00;98617.08;105159;1256;69177;-62
2023/12/21 07:56:48;;;;;;;5.10;2.10;;;;;;;5.24;100.00;98617.16;105212;1262;74569;-62
2023/12/21 07:59:17;;;;;;;3.50;1.80;;;;;;;5.25;100.00;98605.66;105149;1261;81499;-63
2023/12/21 08:01:49;;;;;;;1.90;0.80;;;;;;;5.27;100.00;98599.38;105157;1260;70557;-62
2023/12/21 08:04:17;;;;;;;1.40;0.90;;;;;;;5.29;100.00;98595.98;105152;1263;69299;-62
2023/12/21 08:06:45;;;;;;;3.20;1.10;;;;;;;5.31;100.00;98595.91;105144;1260;69926;-62
2023/12/21 08:09:15;;;;;;;1.50;0.80;;;;;;;5.32;100.00;98592.72;105143;1262;73894;-61
2023/12/21 08:11:43;;;;;;;2.90;1.20;;;;;;;5.34;100.00;98588.16;105184;1256;80356;-62
2023/12/21 08:14:12;;;;;;;1.20;0.70;;;;;;;5.35;100.00;98584.45;105129;1263;71103;-61
2023/12/21 08:16:40;;;;;;;2.90;0.70;;;;;;;5.36;100.00;98575.05;105216;1260;69198;-62
2023/12/21 08:19:11;;;;;;;1.70;0.80;;;;;;;5.39;100.00;98573.89;105161;1262;69202;-62
2023/12/21 08:21:39;;;;;;;1.10;0.60;;;;;;;5.41;100.00;98563.08;105229;1257;73891;-63
2023/12/21 08:24:08;;;;;;;2.30;0.90;;;;;;;5.43;100.00;98558.80;105189;1261;81537;-62
2023/12/21 08:26:38;;;;;;;1.50;0.80;;;;;;;5.46;100.00;98555.21;105201;1258;71092;-62
2023/12/21 08:29:06;;;;;;;1.40;0.60;;;;;;;5.49;100.00;98542.80;105147;1260;69121;-63
2023/12/21 08:31:34;;;;;;;1.50;0.80;;;;;;;5.51;100.00;98531.41;105173;1262;69151;-62
2023/12/21 08:34:03;;;;;;;1.00;0.80;;;;;;;5.54;100.00;98535.46;105194;1256;74424;-62
2023/12/21 08:36:31;;;;;;;1.20;0.70;;;;;;;5.55;100.00;98537.80;105273;1260;82715;-62
2023/12/21 08:39:01;;;;;;;1.60;0.70;;;;;;;5.58;100.00;98538.22;105161;1257;72119;-63
2023/12/21 08:41:29;;;;;;;1.00;0.60;;;;;;;5.60;100.00;98512.80;105339;1263;69206;-62
2023/12/21 08:43:57;;;;;;;1.20;0.80;;;;;;;5.63;100.00;98512.86;105165;1260;69181;-62
2023/12/21 08:46:26;;;;;;;1.30;0.90;;;;;;;5.64;100.00;98511.06;105226;1260;75022;-62
2023/12/21 08:48:54;;;;;;;1.70;0.90;;;;;;;5.66;100.00;98496.27;105153;1258;82758;-61
2023/12/21 08:51:22;;;;;;;0.90;0.60;;;;;;;5.66;100.00;98500.42;105230;1258;71885;-62
2023/12/21 08:53:50;;;;;;;1.90;0.70;;;;;;;5.66;100.00;98492.78;105127;1256;69084;-61
2023/12/21 08:56:19;;;;;;;0.60;0.50;;;;;;;5.68;100.00;98492.86;105154;1261;69135;-61
2023/12/21 08:58:47;;;;;;;1.10;0.60;;;;;;;5.69;100.00;98490.20;105178;1258;74284;-62
2023/12/21 09:01:15;;;;;;;0.80;0.50;;;;;;;5.72;100.00;98489.36;105107;1271;81387;-61
2023/12/21 09:03:43;;;;;;;0.60;0.50;;;;;;;5.76;100.00;98477.20;105141;1260;73228;-61
2023/12/21 09:06:12;;;;;;;1.10;0.60;;;;;;;5.78;100.00;98468.64;105254;1261;69183;-61
2023/12/21 09:08:40;;;;;;;1.10;0.60;;;;;;;5.78;100.00;98452.14;105137;1262;69242;-61
2023/12/21 09:11:08;;;;;;;2.20;0.80;;;;;;;5.78;100.00;98450.78;105177;1258;73944;-61
2023/12/21 09:13:37;;;;;;;2.00;1.20;;;;;;;5.77;100.00;98447.73;105203;1260;81740;-61
2023/12/21 09:16:05;;;;;;;2.00;0.90;;;;;;;5.78;100.00;98433.41;105107;1260;71837;-61
2023/12/21 09:18:33;;;;;;;1.60;1.00;;;;;;;5.79;100.00;98430.97;105144;1260;69122;-61
2023/12/21 09:21:03;;;;;;;1.10;0.60;;;;;;;5.79;100.00;98420.56;105146;1263;69763;-61
2023/12/21 09:23:32;;;;;;;1.50;0.70;;;;;;;5.81;100.00;98417.03;105184;1261;74970;-61
2023/12/21 09:26:00;;;;;;;1.40;0.70;;;;;;;5.82;100.00;98410.56;105218;1257;81530;-61
2023/12/21 09:28:28;;;;;;;1.00;0.60;;;;;;;5.83;100.00;98403.06;105145;1261;71890;-61
2023/12/21 09:30:57;;;;;;;0.70;0.50;;;;;;;5.83;100.00;98392.16;105149;1256;69700;-61
2023/12/21 09:33:26;;;;;;;0.80;0.50;;;;;;;5.82;100.00;98382.65;105174;1262;69216;-61
2023/12/21 09:35:58;;;;;;;0.70;0.40;;;;;;;5.82;100.00;98370.70;105176;1263;74171;-61
2023/12/21 09:38:26;;;;;;;2.90;0.90;;;;;;;5.81;100.00;98360.31;105158;1267;82109;-61
2023/12/21 09:40:57;;;;;;;4.50;1.80;;;;;;;5.81;100.00;98349.23;105156;1262;71870;-61
2023/12/21 09:43:26;;;;;;;6.30;2.40;;;;;;;5.81;100.00;98341.95;105146;1270;69286;-61
2023/12/21 09:45:56;;;;;;;4.60;1.50;;;;;;;5.81;100.00;98341.42;105181;1257;69171;-62
2023/12/21 09:48:25;;;;;;;2.80;0.70;;;;;;;5.82;100.00;98341.40;105153;1262;72782;-62
2023/12/21 09:50:55;;;;;;;0.80;0.50;;;;;;;5.82;100.00;98336.19;105129;1262;81923;-61
2023/12/21 09:53:25;;;;;;;3.70;1.50;;;;;;;5.85;100.00;98320.30;105155;1261;71774;-62
2023/12/21 09:55:53;;;;;;;3.00;1.00;;;;;;;5.86;100.00;98306.38;105114;1261;69209;-61
2023/12/21 09:58:22;;;;;;;1.20;0.50;;;;;;;5.86;100.00;98303.73;105086;1270;69122;-61
2023/12/21 10:00:50;;;;;;;1.30;0.50;;;;;;;5.86;100.00;98290.42;105248;1257;73888;-61
2023/12/21 10:03:18;;;;;;;0.70;0.50;;;;;;;5.86;100.00;98287.33;105160;1260;81675;-62
2023/12/21 10:05:48;;;;;;;2.60;1.10;;;;;;;5.85;100.00;98274.73;105153;1263;73882;-62
2023/12/21 10:08:20;;;;;;;0.90;0.50;;;;;;;5.83;100.00;98263.69;105268;1263;69759;-62
2023/12/21 10:10:48;;;;;;;1.40;0.70;;;;;;;5.84;100.00;98249.27;105177;1262;69186;-64
2023/12/21 10:13:17;;;;;;;2.10;0.80;;;;;;;5.83;100.00;98244.83;105319;1262;73909;-63
2023/12/21 10:15:46;;;;;;;1.40;0.80;;;;;;;5.83;100.00;98235.65;105225;1260;82637;-63
2023/12/21 10:18:15;;;;;;;1.60;0.80;;;;;;;5.83;100.00;98220.77;105159;1262;72069;-63
2023/12/21 10:20:43;;;;;;;1.80;1.00;;;;;;;5.84;100.00;98210.98;105139;1262;69171;-63
2023/12/21 10:23:12;;;;;;;1.80;0.70;;;;;;;5.85;100.00;98200.33;105136;1261;69158;-63
2023/12/21 10:25:45;;;;;;;1.50;0.80;;;;;;;5.87;100.00;98187.73;105198;1263;74294;-63
2023/12/21 10:28:13;;;;;;;1.30;0.80;;;;;;;5.90;100.00;98174.27;105193;1263;81624;-63
2023/12/21 10:30:41;;;;;;;0.90;0.70;;;;;;;5.89;100.00;98169.92;105161;1262;71769;-62
2023/12/21 10:33:12;;;;;;;1.30;0.60;;;;;;;5.91;100.00;98170.57;105080;1260;69163;-63
2023/12/21 10:35:40;;;;;;;1.40;0.70;;;;;;;5.92;100.00;98155.78;105155;1260;69159;-63
2023/12/21 10:38:09;;;;;;;0.80;0.70;;;;;;;5.93;100.00;98154.52;105144;1257;74118;-63
2023/12/21 10:40:37;;;;;;;1.20;0.60;;;;;;;5.95;100.00;98139.54;105154;1262;82271;-63
2023/12/21 10:43:06;;;;;;;1.50;0.50;;;;;;;5.96;100.00;98139.48;105165;1257;72278;-63
2023/12/21 10:45:35;;;;;;;0.90;0.50;;;;;;;5.97;100.00;98125.33;105138;1257;69138;-63
2023/12/21 10:48:08;;;;;;;1.50;0.80;;;;;;;5.99;100.00;98111.73;105169;1263;69180;-63
2023/12/21 10:50:38;;;;;;;0.60;0.50;;;;;;;6.02;100.00;98100.31;105172;1261;72943;-63
2023/12/21 10:53:09;;;;;;;0.80;0.50;;;;;;;6.04;100.00;98096.54;105188;1258;81797;-63
2023/12/21 10:55:38;;;;;;;1.00;0.70;;;;;;;6.04;100.00;98092.37;105006;1260;227463;-64
2023/12/21 10:58:07;;;;;;;1.40;0.60;;;;;;;6.05;100.00;98082.11;105129;1263;69175;-63
2023/12/21 11:00:36;;;;;;;1.30;0.60;;;;;;;6.05;100.00;98070.32;105195;1260;69182;-64
2023/12/21 11:03:09;;;;;;;1.10;0.60;;;;;;;6.05;100.00;98068.58;105135;1263;73984;-63
2023/12/21 11:05:40;;;;;;;0.70;0.50;;;;;;;6.05;100.00;98056.29;105203;1260;82913;-63
2023/12/21 11:08:08;;;;;;;0.80;0.50;;;;;;;6.06;100.00;98049.98;105104;1264;73259;-63
2023/12/21 11:10:37;;;;;;;0.70;0.50;;;;;;;6.06;100.00;98049.64;105184;1257;69196;-63
2023/12/21 11:13:05;;;;;;;1.20;0.70;;;;;;;6.07;100.00;98042.48;105184;1262;69105;-63
2023/12/21 11:15:35;;;;;;;0.90;0.60;;;;;;;6.08;100.00;98033.95;105124;1262;73894;-63
2023/12/21 11:18:10;;;;;;;1.30;0.70;;;;;;;6.09;100.00;98020.55;105186;1258;82638;-63
2023/12/21 11:20:43;;;;;;;1.90;0.80;;;;;;;6.09;100.00;98015.98;105102;1257;71936;-63
2023/12/21 11:23:17;;;;;;;1.40;0.70;;;;;;;6.10;100.00;98007.81;105138;1265;69151;-62
2023/12/21 11:25:59;;;;;;;1.60;0.90;;;;;;;6.10;100.00;98002.60;105222;1260;69172;-61
2023/12/21 11:28:30;;;;;;;3.10;0.40;;;;;;;6.11;100.00;98000.82;105164;1260;73814;-62
2023/12/21 11:31:00;;;;;;;2.50;0.70;;;;;;;6.11;100.00;97985.20;105176;1261;83409;-62